Time;durP1;ratioP1;P1;durP2;ratioP2;P2;SDS_P1;SDS_P2;PMS_P1;PMS_P2;Temp;Humidity;BMP_temperature;BMP_pressure;BME280_temperature;BME280_humidity;BME280_pressure;Samples;Min_cycle;Max_cycle;Signal;HPM_P1;HPM_P2
2022/10/31 00:01:25;;;;;;;18.33;3.22;;;;;;;;;;5015821;28;20038;-63
2022/10/31 00:03:51;;;;;;;23.92;2.95;;;;;;;;;;5016290;28;20095;-63
2022/10/31 00:06:18;;;;;;;25.17;3.90;;;;;;;;;;5016239;28;20030;-63
2022/10/31 00:08:45;;;;;;;23.15;3.10;;;;;;;;;;5016326;28;20018;-61
2022/10/31 00:11:11;;;;;;;21.38;3.72;;;;;;;;;;5015310;28;20183;-60
2022/10/31 00:13:38;;;;;;;15.23;3.30;;;;;;;;;;5019041;28;20049;-61
2022/10/31 00:16:04;;;;;;;25.05;4.60;;;;;;;;;;5015135;28;20517;-61
2022/10/31 00:18:30;;;;;;;19.05;2.90;;;;;;;;;;5015650;28;20068;-61
2022/10/31 00:21:03;;;;;;;18.08;3.05;;;;;;;;;;5015454;28;20021;-61
2022/10/31 00:23:29;;;;;;;21.83;3.75;;;;;;;;;;5015554;28;20121;-61
2022/10/31 00:26:00;;;;;;;19.77;3.53;;;;;;;;;;5015734;28;20029;-61
2022/10/31 00:28:26;;;;;;;19.20;3.55;;;;;;;;;;5015458;28;20030;-61
2022/10/31 00:30:52;;;;;;;22.55;3.88;;;;;;;;;;5014388;28;20034;-60
2022/10/31 00:33:18;;;;;;;14.30;2.70;;;;;;;;;;5015286;28;20034;-60
2022/10/31 00:35:50;;;;;;;19.83;3.15;;;;;;;;;;5015492;28;20385;-61
2022/10/31 00:38:16;;;;;;;16.25;2.90;;;;;;;;;;5015381;28;20018;-61
2022/10/31 00:40:42;;;;;;;17.60;2.90;;;;;;;;;;5015467;28;20401;-61
2022/10/31 00:43:09;;;;;;;19.90;3.80;;;;;;;;;;5013606;28;20030;-60
2022/10/31 00:45:35;;;;;;;21.30;3.55;;;;;;;;;;5014113;28;20095;-61
2022/10/31 00:48:01;;;;;;;35.25;5.07;;;;;;;;;;5015231;28;20033;-61
2022/10/31 00:50:27;;;;;;;19.90;2.80;;;;;;;;;;5014041;28;20414;-61
2022/10/31 00:52:54;;;;;;;23.40;3.58;;;;;;;;;;5014125;28;20096;-61
2022/10/31 00:55:20;;;;;;;20.67;4.68;;;;;;;;;;5014870;28;20041;-61
2022/10/31 00:57:47;;;;;;;28.88;4.13;;;;;;;;;;5013466;28;20037;-60
2022/10/31 01:00:13;;;;;;;17.08;2.53;;;;;;;;;;5033272;28;20035;-61
2022/10/31 01:02:40;;;;;;;22.02;2.95;;;;;;;;;;5026340;28;20378;-61
2022/10/31 01:05:07;;;;;;;22.25;3.97;;;;;;;;;;5013818;28;20030;-61
2022/10/31 01:07:38;;;;;;;26.23;4.55;;;;;;;;;;5032394;28;20052;-61
2022/10/31 01:10:08;;;;;;;20.08;3.60;;;;;;;;;;5033102;28;20429;-61
2022/10/31 01:12:38;;;;;;;23.63;2.88;;;;;;;;;;5032908;28;20127;-61
2022/10/31 01:15:04;;;;;;;21.58;2.78;;;;;;;;;;5023368;28;20133;-61
2022/10/31 01:17:31;;;;;;;16.70;2.60;;;;;;;;;;5014702;28;20109;-61
2022/10/31 01:19:57;;;;;;;17.92;3.20;;;;;;;;;;5014710;28;20500;-61
2022/10/31 01:22:27;;;;;;;18.92;3.78;;;;;;;;;;5013250;28;20022;-61
2022/10/31 01:24:53;;;;;;;14.15;3.13;;;;;;;;;;5014902;28;20040;-61
2022/10/31 01:27:19;;;;;;;22.17;4.82;;;;;;;;;;5014019;28;20037;-61
2022/10/31 01:29:45;;;;;;;15.18;2.53;;;;;;;;;;5030881;28;20079;-61
2022/10/31 01:32:12;;;;;;;19.50;4.45;;;;;;;;;;5034192;28;20470;-61
2022/10/31 01:34:38;;;;;;;11.30;2.78;;;;;;;;;;5034139;28;20029;-61
2022/10/31 01:37:04;;;;;;;18.13;3.45;;;;;;;;;;5034303;28;20504;-61
2022/10/31 01:39:30;;;;;;;14.25;2.50;;;;;;;;;;5033730;28;20034;-60
2022/10/31 01:41:56;;;;;;;14.60;2.63;;;;;;;;;;5033800;28;20060;-61
2022/10/31 01:44:22;;;;;;;13.15;2.70;;;;;;;;;;5032729;28;20465;-60
2022/10/31 01:46:48;;;;;;;13.98;2.50;;;;;;;;;;5034110;28;20425;-61
2022/10/31 01:49:19;;;;;;;16.23;2.60;;;;;;;;;;5034167;28;20026;-60
2022/10/31 01:51:48;;;;;;;24.25;2.90;;;;;;;;;;5034010;28;20064;-61
2022/10/31 01:54:16;;;;;;;15.30;2.63;;;;;;;;;;5027497;28;20052;-60
2022/10/31 01:56:44;;;;;;;23.15;4.82;;;;;;;;;;5014012;28;20029;-61
2022/10/31 01:59:15;;;;;;;16.73;2.95;;;;;;;;;;5024201;28;20155;-61
2022/10/31 02:01:41;;;;;;;18.20;3.03;;;;;;;;;;4997987;28;20021;-60
2022/10/31 02:04:08;;;;;;;11.95;2.17;;;;;;;;;;5012598;28;20463;-61
2022/10/31 02:06:37;;;;;;;11.60;2.65;;;;;;;;;;5013410;28;20038;-61
2022/10/31 02:09:05;;;;;;;21.55;3.70;;;;;;;;;;5012755;28;20026;-60
2022/10/31 02:11:31;;;;;;;19.20;3.70;;;;;;;;;;5013226;28;20037;-60
2022/10/31 02:13:59;;;;;;;18.35;2.75;;;;;;;;;;5012084;28;20038;-60
2022/10/31 02:16:25;;;;;;;15.30;2.75;;;;;;;;;;5013237;28;20030;-61
2022/10/31 02:18:53;;;;;;;18.48;2.90;;;;;;;;;;5012331;28;20474;-60
2022/10/31 02:21:21;;;;;;;20.67;3.50;;;;;;;;;;5012222;28;20029;-60
2022/10/31 02:24:05;;;;;;;16.25;2.90;;;;;;;;;;5013327;28;20022;-60
2022/10/31 02:26:33;;;;;;;16.25;3.15;;;;;;;;;;5029374;28;20037;-60
2022/10/31 02:29:18;;;;;;;18.85;3.20;;;;;;;;;;5033374;28;20060;-60
2022/10/31 02:31:44;;;;;;;23.75;4.15;;;;;;;;;;5033185;28;20025;-60
2022/10/31 02:34:11;;;;;;;12.70;2.80;;;;;;;;;;5031779;28;20064;-60
2022/10/31 02:36:41;;;;;;;15.90;3.33;;;;;;;;;;5031545;28;20025;-60
2022/10/31 02:39:07;;;;;;;19.90;2.88;;;;;;;;;;5032860;28;20034;-61
2022/10/31 02:41:41;;;;;;;19.50;3.20;;;;;;;;;;5031465;28;20021;-60
2022/10/31 02:44:10;;;;;;;22.95;4.18;;;;;;;;;;5031726;28;20068;-61
2022/10/31 02:46:40;;;;;;;19.48;2.45;;;;;;;;;;5031530;28;20079;-60
2022/10/31 02:49:12;;;;;;;25.48;2.80;;;;;;;;;;5031589;28;20033;-60
2022/10/31 02:51:39;;;;;;;15.52;2.78;;;;;;;;;;5031537;28;20044;-60
2022/10/31 02:54:05;;;;;;;19.48;3.45;;;;;;;;;;5023605;28;20033;-61
2022/10/31 02:56:32;;;;;;;17.35;2.67;;;;;;;;;;5011044;28;20041;-60
2022/10/31 02:59:00;;;;;;;18.27;3.10;;;;;;;;;;5012566;28;20033;-60
2022/10/31 03:01:40;;;;;;;22.95;3.60;;;;;;;;;;5011561;28;20409;-60
2022/10/31 03:04:26;;;;;;;17.98;3.65;;;;;;;;;;5011342;28;20026;-61
2022/10/31 03:06:55;;;;;;;20.10;3.35;;;;;;;;;;5011483;28;20044;-61
2022/10/31 03:09:21;;;;;;;14.63;2.58;;;;;;;;;;5011451;28;20037;-60
2022/10/31 03:12:08;;;;;;;13.95;2.97;;;;;;;;;;5012858;28;20068;-60
2022/10/31 03:14:54;;;;;;;15.85;3.15;;;;;;;;;;5011338;28;20099;-60
2022/10/31 03:17:34;;;;;;;19.05;3.45;;;;;;;;;;5011524;28;20033;-61
2022/10/31 03:20:01;;;;;;;18.73;3.60;;;;;;;;;;5011494;28;20034;-60
2022/10/31 03:22:30;;;;;;;15.40;2.92;;;;;;;;;;5014835;28;20037;-61
2022/10/31 03:24:58;;;;;;;24.20;2.72;;;;;;;;;;5015624;28;20116;-61
2022/10/31 03:27:26;;;;;;;24.67;3.00;;;;;;;;;;5015587;28;20067;-60
2022/10/31 03:29:55;;;;;;;19.52;2.92;;;;;;;;;;5015543;28;20574;-60
2022/10/31 03:32:31;;;;;;;25.40;2.95;;;;;;;;;;5017013;28;20613;-60
2022/10/31 03:34:58;;;;;;;19.73;3.47;;;;;;;;;;5016535;28;20501;-60
2022/10/31 03:37:27;;;;;;;13.27;2.63;;;;;;;;;;5014810;28;20022;-61
2022/10/31 03:39:54;;;;;;;10.60;2.40;;;;;;;;;;5014993;28;20030;-60
2022/10/31 03:42:24;;;;;;;14.43;2.63;;;;;;;;;;5015065;28;20040;-60
2022/10/31 03:44:54;;;;;;;12.35;2.35;;;;;;;;;;5016303;28;20056;-61
2022/10/31 03:47:20;;;;;;;16.85;2.25;;;;;;;;;;5014944;28;20029;-60
2022/10/31 03:49:48;;;;;;;7.80;2.05;;;;;;;;;;5015149;28;20018;-60
2022/10/31 03:52:27;;;;;;;8.35;2.38;;;;;;;;;;5014870;28;20033;-61
2022/10/31 03:54:57;;;;;;;21.48;3.03;;;;;;;;;;5014439;28;20037;-60
2022/10/31 03:57:41;;;;;;;18.05;2.40;;;;;;;;;;5015158;28;20113;-61
2022/10/31 04:00:09;;;;;;;23.55;2.97;;;;;;;;;;5014854;28;20025;-61
2022/10/31 04:03:06;;;;;;;13.07;2.70;;;;;;;;;;5016008;28;20113;-61
2022/10/31 04:05:35;;;;;;;16.88;2.67;;;;;;;;;;4996477;28;20039;-60
2022/10/31 04:08:03;;;;;;;12.63;2.20;;;;;;;;;;5010271;28;20022;-60
2022/10/31 04:10:32;;;;;;;13.80;2.38;;;;;;;;;;5014538;28;20042;-61
2022/10/31 04:13:06;;;;;;;16.98;2.95;;;;;;;;;;5013996;28;20041;-60
2022/10/31 04:15:39;;;;;;;11.98;2.38;;;;;;;;;;5019405;28;20053;-61
2022/10/31 04:18:06;;;;;;;18.85;2.42;;;;;;;;;;5014411;28;20030;-61
2022/10/31 04:20:32;;;;;;;9.38;2.00;;;;;;;;;;5018178;28;20022;-60
2022/10/31 04:22:58;;;;;;;16.17;2.30;;;;;;;;;;5018303;28;20165;-60
2022/10/31 04:25:24;;;;;;;18.48;2.38;;;;;;;;;;5014498;28;20132;-60
2022/10/31 04:27:53;;;;;;;16.25;2.25;;;;;;;;;;5014060;28;20036;-60
2022/10/31 04:30:19;;;;;;;16.05;2.45;;;;;;;;;;5019581;28;20033;-60
2022/10/31 04:32:46;;;;;;;11.50;3.33;;;;;;;;;;5029430;28;20394;-60
2022/10/31 04:35:12;;;;;;;10.45;3.33;;;;;;;;;;5014202;28;20036;-60
2022/10/31 04:37:38;;;;;;;15.48;2.70;;;;;;;;;;5015466;28;20069;-61
2022/10/31 04:40:04;;;;;;;10.25;2.00;;;;;;;;;;5015102;28;20471;-61
2022/10/31 04:42:51;;;;;;;9.77;1.95;;;;;;;;;;4992992;28;20038;-60
2022/10/31 04:45:17;;;;;;;7.80;1.80;;;;;;;;;;4996118;28;20442;-60
2022/10/31 04:47:43;;;;;;;20.50;3.03;;;;;;;;;;4976956;28;20130;-60
2022/10/31 04:50:10;;;;;;;12.32;2.25;;;;;;;;;;4993228;28;20042;-61
2022/10/31 04:52:40;;;;;;;20.77;3.00;;;;;;;;;;4993775;28;20080;-60
2022/10/31 04:55:08;;;;;;;16.67;2.30;;;;;;;;;;4996346;28;20042;-60
2022/10/31 04:57:50;;;;;;;13.82;2.58;;;;;;;;;;5012994;28;20532;-60
2022/10/31 05:00:18;;;;;;;11.25;2.40;;;;;;;;;;4993422;28;20050;-60
2022/10/31 05:02:44;;;;;;;17.33;3.53;;;;;;;;;;4992557;28;20590;-60
2022/10/31 05:05:11;;;;;;;10.15;2.03;;;;;;;;;;4998278;28;20120;-61
2022/10/31 05:07:43;;;;;;;10.80;2.33;;;;;;;;;;4993059;28;20108;-60
2022/10/31 05:10:11;;;;;;;15.40;3.38;;;;;;;;;;4992674;28;20043;-61
2022/10/31 05:12:38;;;;;;;13.30;2.65;;;;;;;;;;4992818;28;20069;-60
2022/10/31 05:15:07;;;;;;;19.80;2.45;;;;;;;;;;4997559;28;20034;-60
2022/10/31 05:17:52;;;;;;;17.23;2.58;;;;;;;;;;4992503;28;20438;-60
2022/10/31 05:20:44;;;;;;;15.60;3.28;;;;;;;;;;5005792;28;20038;-60
2022/10/31 05:23:34;;;;;;;12.63;2.60;;;;;;;;;;4979979;28;20465;-60
2022/10/31 05:26:02;;;;;;;15.73;2.70;;;;;;;;;;4976156;28;20045;-60
2022/10/31 05:28:28;;;;;;;15.20;2.53;;;;;;;;;;4985932;28;20026;-60
2022/10/31 05:30:54;;;;;;;9.95;2.53;;;;;;;;;;5028657;28;20073;-60
2022/10/31 05:33:21;;;;;;;20.17;2.80;;;;;;;;;;5001351;28;20029;-60
2022/10/31 05:36:06;;;;;;;11.65;2.42;;;;;;;;;;4992279;28;20042;-60
2022/10/31 05:38:53;;;;;;;10.90;2.03;;;;;;;;;;4975985;28;20553;-60
2022/10/31 05:41:24;;;;;;;12.40;2.60;;;;;;;;;;4976026;28;20040;-60
2022/10/31 05:43:50;;;;;;;7.80;2.85;;;;;;;;;;5016268;28;20049;-60
2022/10/31 05:46:21;;;;;;;22.08;3.40;;;;;;;;;;5011766;28;20441;-60
2022/10/31 05:49:19;;;;;;;8.60;2.40;;;;;;;;;;4996481;28;20502;-60
2022/10/31 05:52:04;;;;;;;10.52;2.90;;;;;;;;;;5007540;28;20048;-60
2022/10/31 05:54:38;;;;;;;17.45;1.98;;;;;;;;;;4995417;28;20038;-60
2022/10/31 05:57:04;;;;;;;9.38;2.33;;;;;;;;;;4998659;28;20042;-60
2022/10/31 05:59:30;;;;;;;11.18;2.45;;;;;;;;;;4996352;28;20018;-60
2022/10/31 06:01:58;;;;;;;15.65;3.17;;;;;;;;;;5011223;28;20029;-60
2022/10/31 06:04:46;;;;;;;12.13;2.53;;;;;;;;;;5013043;28;20030;-61
2022/10/31 06:07:13;;;;;;;11.85;2.95;;;;;;;;;;5012415;28;20092;-60
2022/10/31 06:09:39;;;;;;;8.77;2.35;;;;;;;;;;5011782;28;20119;-60
2022/10/31 06:12:06;;;;;;;10.70;2.33;;;;;;;;;;5012384;28;20033;-61
2022/10/31 06:15:10;;;;;;;8.10;2.80;;;;;;;;;;5015547;28;20372;-60
2022/10/31 06:17:36;;;;;;;10.77;2.42;;;;;;;;;;5033399;28;20031;-60
2022/10/31 06:20:29;;;;;;;16.45;3.28;;;;;;;;;;5028615;28;20037;-60
2022/10/31 06:23:00;;;;;;;12.63;3.20;;;;;;;;;;5010588;28;20025;-60
2022/10/31 06:25:27;;;;;;;10.05;3.03;;;;;;;;;;5011373;28;20033;-60
2022/10/31 06:27:53;;;;;;;9.10;3.42;;;;;;;;;;5016684;28;20021;-60
2022/10/31 06:30:22;;;;;;;8.40;3.03;;;;;;;;;;5015249;28;20026;-60
2022/10/31 06:32:49;;;;;;;14.90;3.15;;;;;;;;;;5021967;28;20034;-60
2022/10/31 06:35:15;;;;;;;10.65;3.10;;;;;;;;;;5021494;28;20521;-60
2022/10/31 06:37:42;;;;;;;15.95;3.78;;;;;;;;;;5019568;28;20037;-60
2022/10/31 06:40:27;;;;;;;13.20;3.88;;;;;;;;;;5009226;28;20498;-60
2022/10/31 06:43:17;;;;;;;11.30;3.38;;;;;;;;;;5016910;28;20045;-60
2022/10/31 06:45:44;;;;;;;10.90;2.40;;;;;;;;;;5017934;28;20391;-60
2022/10/31 06:48:30;;;;;;;15.00;3.63;;;;;;;;;;5017442;28;20041;-60
2022/10/31 06:51:15;;;;;;;10.15;2.75;;;;;;;;;;5015402;28;20125;-60
2022/10/31 06:53:41;;;;;;;15.57;3.42;;;;;;;;;;5018386;28;20029;-60
2022/10/31 06:56:10;;;;;;;16.55;2.65;;;;;;;;;;5015691;28;20076;-60
2022/10/31 06:58:41;;;;;;;15.32;2.78;;;;;;;;;;5008160;28;20053;-60
2022/10/31 07:01:09;;;;;;;12.68;3.15;;;;;;;;;;5007995;28;20061;-60
2022/10/31 07:03:35;;;;;;;13.15;3.35;;;;;;;;;;5007602;28;20465;-60
2022/10/31 07:06:02;;;;;;;16.00;2.78;;;;;;;;;;4999590;28;20403;-60
2022/10/31 07:08:28;;;;;;;13.32;3.22;;;;;;;;;;5001773;28;20022;-61
2022/10/31 07:10:55;;;;;;;13.50;2.65;;;;;;;;;;5000022;28;20477;-60
2022/10/31 07:13:26;;;;;;;12.32;2.63;;;;;;;;;;4995081;28;20045;-60
2022/10/31 07:16:01;;;;;;;12.88;2.95;;;;;;;;;;4998333;28;20125;-60
2022/10/31 07:18:27;;;;;;;9.77;2.97;;;;;;;;;;4996825;28;20117;-60
2022/10/31 07:20:54;;;;;;;12.52;2.88;;;;;;;;;;5009698;28;20494;-60
2022/10/31 07:23:20;;;;;;;13.43;2.63;;;;;;;;;;5007154;28;20029;-60
2022/10/31 07:25:59;;;;;;;20.42;3.15;;;;;;;;;;5001880;28;20119;-61
2022/10/31 07:28:31;;;;;;;12.38;3.08;;;;;;;;;;5000807;28;20076;-60
2022/10/31 07:31:00;;;;;;;14.65;3.13;;;;;;;;;;4995685;28;20038;-61
2022/10/31 07:33:27;;;;;;;16.83;3.08;;;;;;;;;;5002470;28;20061;-60
2022/10/31 07:36:11;;;;;;;17.17;4.20;;;;;;;;;;5016676;28;20076;-60
2022/10/31 07:38:41;;;;;;;8.77;2.60;;;;;;;;;;5013271;28;20084;-60
2022/10/31 07:41:07;;;;;;;11.50;2.90;;;;;;;;;;5015218;28;20046;-60
2022/10/31 07:43:38;;;;;;;7.40;2.67;;;;;;;;;;5013896;28;20446;-60
2022/10/31 07:46:16;;;;;;;9.02;3.03;;;;;;;;;;5007332;28;20049;-60
2022/10/31 07:49:01;;;;;;;13.65;2.92;;;;;;;;;;5012116;28;20089;-60
2022/10/31 07:51:50;;;;;;;11.45;2.75;;;;;;;;;;5021096;28;20026;-60
2022/10/31 07:54:35;;;;;;;12.13;2.55;;;;;;;;;;5013218;28;20045;-60
2022/10/31 07:57:01;;;;;;;8.35;2.45;;;;;;;;;;5017719;28;20022;-60
2022/10/31 07:59:28;;;;;;;9.38;2.80;;;;;;;;;;5010346;28;20026;-60
2022/10/31 08:01:54;;;;;;;8.52;3.47;;;;;;;;;;5008107;28;20022;-60
2022/10/31 08:04:41;;;;;;;13.38;2.92;;;;;;;;;;5007469;28;20133;-60
2022/10/31 08:07:26;;;;;;;14.20;3.10;;;;;;;;;;5005454;28;20096;-60
2022/10/31 08:10:00;;;;;;;12.23;2.50;;;;;;;;;;4995540;28;20045;-60
2022/10/31 08:12:30;;;;;;;15.18;2.95;;;;;;;;;;4995995;28;20133;-60
2022/10/31 08:14:56;;;;;;;13.82;2.90;;;;;;;;;;5026882;28;20042;-60
2022/10/31 08:17:22;;;;;;;7.03;2.38;;;;;;;;;;5026421;28;20514;-60
2022/10/31 08:19:54;;;;;;;9.20;2.50;;;;;;;;;;5026410;28;20048;-60
2022/10/31 08:22:26;;;;;;;8.15;2.38;;;;;;;;;;4993442;28;20057;-60
2022/10/31 08:24:52;;;;;;;6.97;2.58;;;;;;;;;;4993227;28;20026;-60
2022/10/31 08:27:18;;;;;;;7.93;2.47;;;;;;;;;;4992126;28;20375;-60
2022/10/31 08:29:45;;;;;;;4.95;2.25;;;;;;;;;;5010003;28;20046;-60
2022/10/31 08:32:13;;;;;;;8.63;2.40;;;;;;;;;;5029047;28;20030;-60
2022/10/31 08:34:54;;;;;;;6.82;2.58;;;;;;;;;;5011678;28;20048;-60
2022/10/31 08:37:28;;;;;;;10.18;2.47;;;;;;;;;;5010858;28;20037;-60
2022/10/31 08:39:55;;;;;;;14.15;3.17;;;;;;;;;;4993691;28;20107;-60
2022/10/31 08:42:22;;;;;;;8.85;2.58;;;;;;;;;;5004247;28;20045;-60
2022/10/31 08:44:48;;;;;;;8.27;2.30;;;;;;;;;;5010848;28;20033;-61
2022/10/31 08:47:14;;;;;;;5.35;1.88;;;;;;;;;;5001448;28;20033;-61
2022/10/31 08:49:40;;;;;;;8.07;1.90;;;;;;;;;;5005953;28;20410;-61
2022/10/31 08:52:06;;;;;;;5.05;2.08;;;;;;;;;;5012191;28;20034;-60
2022/10/31 08:54:37;;;;;;;5.88;2.08;;;;;;;;;;5013572;28;20033;-60
2022/10/31 08:57:21;;;;;;;6.65;2.28;;;;;;;;;;5011191;28;20055;-61
2022/10/31 08:59:48;;;;;;;6.80;2.55;;;;;;;;;;5013178;28;20033;-61
2022/10/31 09:02:43;;;;;;;7.10;2.08;;;;;;;;;;5009698;28;20041;-61
2022/10/31 09:05:10;;;;;;;8.18;2.58;;;;;;;;;;5018009;28;20036;-61
2022/10/31 09:07:36;;;;;;;7.40;2.65;;;;;;;;;;5013657;28;20163;-61
2022/10/31 09:10:03;;;;;;;5.07;2.10;;;;;;;;;;5019249;28;20044;-61
2022/10/31 09:12:32;;;;;;;4.57;2.67;;;;;;;;;;5026114;28;20537;-61
2022/10/31 09:15:25;;;;;;;5.05;2.65;;;;;;;;;;5023053;28;20042;-61
2022/10/31 09:18:12;;;;;;;4.07;2.10;;;;;;;;;;5029999;28;20054;-61
2022/10/31 09:20:50;;;;;;;8.10;2.25;;;;;;;;;;5030180;28;20044;-61
2022/10/31 09:23:18;;;;;;;4.13;2.17;;;;;;;;;;5014971;28;20038;-61
2022/10/31 09:25:44;;;;;;;5.45;2.58;;;;;;;;;;5014057;28;20029;-61
2022/10/31 09:28:29;;;;;;;7.00;1.90;;;;;;;;;;5024080;28;20080;-61
2022/10/31 09:31:00;;;;;;;6.85;2.03;;;;;;;;;;5030217;28;20029;-61
2022/10/31 09:33:45;;;;;;;10.48;2.13;;;;;;;;;;5031473;28;20639;-61
2022/10/31 09:36:49;;;;;;;7.05;2.08;;;;;;;;;;4974864;28;20080;-61
2022/10/31 09:39:20;;;;;;;6.82;2.22;;;;;;;;;;4955392;28;20031;-61
2022/10/31 09:42:11;;;;;;;4.10;1.80;;;;;;;;;;4965131;28;20061;-61
2022/10/31 09:44:56;;;;;;;4.50;1.23;;;;;;;;;;4979157;28;20031;-61
2022/10/31 09:47:41;;;;;;;5.53;1.98;;;;;;;;;;4956389;28;20053;-61
2022/10/31 09:50:49;;;;;;;5.82;1.40;;;;;;;;;;4971394;28;20041;-61
2022/10/31 09:53:54;;;;;;;5.55;1.85;;;;;;;;;;4932594;29;20387;-60
2022/10/31 09:56:23;;;;;;;5.93;1.73;;;;;;;;;;4913511;29;20031;-61
2022/10/31 09:58:53;;;;;;;8.27;2.55;;;;;;;;;;4927608;29;20039;-60
2022/10/31 10:01:29;;;;;;;12.18;2.10;;;;;;;;;;4925357;29;20043;-61
2022/10/31 10:03:58;;;;;;;6.82;1.88;;;;;;;;;;4937905;29;20508;-61
2022/10/31 10:06:45;;;;;;;3.58;2.10;;;;;;;;;;4938810;28;20039;-61
2022/10/31 10:09:31;;;;;;;9.40;2.40;;;;;;;;;;4959886;28;20047;-61
2022/10/31 10:12:39;;;;;;;7.30;2.08;;;;;;;;;;4912898;29;20044;-61
2022/10/31 10:15:14;;;;;;;4.65;2.05;;;;;;;;;;4902213;29;20390;-61
2022/10/31 10:17:50;;;;;;;10.57;2.28;;;;;;;;;;4912591;29;20878;-61
2022/10/31 10:20:19;;;;;;;7.35;2.63;;;;;;;;;;4910299;29;20112;-61
2022/10/31 10:22:48;;;;;;;9.60;2.72;;;;;;;;;;4912142;29;20536;-61
2022/10/31 10:25:16;;;;;;;13.27;3.05;;;;;;;;;;4913126;29;20040;-61
2022/10/31 10:27:47;;;;;;;7.00;2.92;;;;;;;;;;4912415;29;20481;-61
2022/10/31 10:30:18;;;;;;;7.90;3.55;;;;;;;;;;4912219;29;20072;-61
2022/10/31 10:32:47;;;;;;;7.50;2.33;;;;;;;;;;4912763;29;20036;-61
2022/10/31 10:35:24;;;;;;;11.02;3.03;;;;;;;;;;4912485;29;20040;-61
2022/10/31 10:37:53;;;;;;;8.63;3.03;;;;;;;;;;4909425;29;20059;-61
2022/10/31 10:40:22;;;;;;;7.53;3.15;;;;;;;;;;4903746;29;20032;-61
2022/10/31 10:43:18;;;;;;;11.05;3.38;;;;;;;;;;4912913;29;20032;-61
2022/10/31 10:48:44;;;;;;;13.70;3.20;;;;;;;;;;4955716;28;20038;-61
2022/10/31 10:51:17;;;;;;;6.70;2.80;;;;;;;;;;5004335;28;20092;-61
2022/10/31 10:54:05;;;;;;;8.55;3.22;;;;;;;;;;5011596;28;20050;-61
2022/10/31 10:56:51;;;;;;;12.80;4.35;;;;;;;;;;5016120;28;20084;-62
2022/10/31 10:59:19;;;;;;;11.05;4.32;;;;;;;;;;5002158;28;20117;-61
2022/10/31 11:01:46;;;;;;;11.02;4.60;;;;;;;;;;4989490;28;20391;-61
2022/10/31 11:04:22;;;;;;;12.52;5.43;;;;;;;;;;5004445;28;20483;-61
2022/10/31 11:06:57;;;;;;;14.70;5.45;;;;;;;;;;5005856;28;20029;-61
2022/10/31 11:09:23;;;;;;;13.40;5.93;;;;;;;;;;5003476;28;20054;-61
2022/10/31 11:11:49;;;;;;;11.55;5.18;;;;;;;;;;5007064;28;20703;-61
2022/10/31 11:14:16;;;;;;;13.38;3.95;;;;;;;;;;5002651;28;20153;-62
2022/10/31 11:16:43;;;;;;;12.70;3.90;;;;;;;;;;5010009;28;20473;-62
2022/10/31 11:19:14;;;;;;;6.25;4.00;;;;;;;;;;5010415;28;20525;-62
2022/10/31 11:21:41;;;;;;;12.57;4.30;;;;;;;;;;5000861;28;20023;-62
2022/10/31 11:24:07;;;;;;;9.32;3.65;;;;;;;;;;4999220;28;20018;-61
2022/10/31 11:26:35;;;;;;;7.57;3.67;;;;;;;;;;5003979;28;20034;-61
2022/10/31 11:29:05;;;;;;;10.35;4.05;;;;;;;;;;5013579;28;20027;-62
2022/10/31 11:31:33;;;;;;;10.00;4.00;;;;;;;;;;5010003;28;20105;-62
2022/10/31 11:34:01;;;;;;;7.05;3.80;;;;;;;;;;5009447;28;20030;-62
2022/10/31 11:36:30;;;;;;;7.35;3.95;;;;;;;;;;5037157;28;20025;-62
2022/10/31 11:38:58;;;;;;;8.02;3.13;;;;;;;;;;5012086;28;20137;-62
2022/10/31 11:41:33;;;;;;;11.68;3.63;;;;;;;;;;5011220;28;20502;-62
2022/10/31 11:44:04;;;;;;;9.00;3.35;;;;;;;;;;5019995;28;20061;-62
2022/10/31 11:46:35;;;;;;;7.82;3.45;;;;;;;;;;5015908;28;20116;-62
2022/10/31 11:49:02;;;;;;;8.10;3.75;;;;;;;;;;5007925;28;20038;-62
2022/10/31 11:51:33;;;;;;;9.48;3.80;;;;;;;;;;5015359;28;20029;-61
2022/10/31 11:54:02;;;;;;;14.25;3.95;;;;;;;;;;5015816;28;20375;-62
2022/10/31 11:56:37;;;;;;;6.53;3.50;;;;;;;;;;5029306;28;20029;-62
2022/10/31 11:59:06;;;;;;;9.82;3.63;;;;;;;;;;5011208;28;20030;-61
2022/10/31 12:01:32;;;;;;;9.07;4.38;;;;;;;;;;5014725;28;20060;-61
2022/10/31 12:04:01;;;;;;;9.30;4.10;;;;;;;;;;5011131;28;20052;-62
2022/10/31 12:06:30;;;;;;;9.68;3.97;;;;;;;;;;5015655;28;20646;-61
2022/10/31 12:08:57;;;;;;;11.23;4.20;;;;;;;;;;5013162;28;20486;-61
2022/10/31 12:11:23;;;;;;;10.13;4.10;;;;;;;;;;5013620;28;20018;-61
2022/10/31 12:13:55;;;;;;;13.67;4.40;;;;;;;;;;5009951;28;20143;-62
2022/10/31 12:16:27;;;;;;;10.50;3.95;;;;;;;;;;5010705;28;20034;-61
2022/10/31 12:19:13;;;;;;;11.48;4.53;;;;;;;;;;5012976;28;20565;-62
2022/10/31 12:21:43;;;;;;;19.30;4.50;;;;;;;;;;5018419;28;20042;-61
2022/10/31 12:24:29;;;;;;;12.68;4.40;;;;;;;;;;5014305;28;20026;-62
2022/10/31 12:27:12;;;;;;;14.18;4.10;;;;;;;;;;5015449;28;20029;-62
2022/10/31 12:29:44;;;;;;;13.13;4.15;;;;;;;;;;5015756;28;20407;-62
2022/10/31 12:32:22;;;;;;;12.00;4.55;;;;;;;;;;5012034;28;20037;-61
2022/10/31 12:34:51;;;;;;;10.23;4.70;;;;;;;;;;5015273;28;20064;-61
2022/10/31 12:37:28;;;;;;;11.68;4.70;;;;;;;;;;5014937;28;20013;-68
2022/10/31 12:39:57;;;;;;;12.77;4.65;;;;;;;;;;5006588;28;20517;-61
2022/10/31 12:42:42;;;;;;;10.55;3.97;;;;;;;;;;5010810;28;20100;-60
2022/10/31 12:45:15;;;;;;;14.88;4.60;;;;;;;;;;5001807;28;20135;-61
2022/10/31 12:47:59;;;;;;;11.85;5.10;;;;;;;;;;5005843;28;20032;-61
2022/10/31 12:50:34;;;;;;;11.90;5.63;;;;;;;;;;5008145;28;20112;-61
2022/10/31 12:53:07;;;;;;;16.42;5.43;;;;;;;;;;5006925;28;20034;-61
2022/10/31 12:55:51;;;;;;;8.80;5.00;;;;;;;;;;5005753;28;20031;-61
2022/10/31 12:58:20;;;;;;;9.93;4.53;;;;;;;;;;5006682;28;20045;-61
2022/10/31 13:00:49;;;;;;;15.57;4.50;;;;;;;;;;5007850;28;20044;-61
2022/10/31 13:03:21;;;;;;;10.02;4.82;;;;;;;;;;5005563;28;20029;-61
2022/10/31 13:05:49;;;;;;;12.38;5.13;;;;;;;;;;5005503;28;20400;-61
2022/10/31 13:08:20;;;;;;;12.52;5.90;;;;;;;;;;5006368;28;20113;-61
2022/10/31 13:10:53;;;;;;;9.50;4.88;;;;;;;;;;5001595;28;20165;-61
2022/10/31 13:13:23;;;;;;;14.98;4.72;;;;;;;;;;5003628;28;20029;-61
2022/10/31 13:16:05;;;;;;;10.05;4.53;;;;;;;;;;5001605;28;20406;-61
2022/10/31 13:18:41;;;;;;;10.60;5.00;;;;;;;;;;5004694;28;20526;-61
2022/10/31 13:21:13;;;;;;;12.45;5.20;;;;;;;;;;5010371;28;20299;-61
2022/10/31 13:23:40;;;;;;;14.18;5.05;;;;;;;;;;5002708;28;20026;-61
2022/10/31 13:26:12;;;;;;;7.72;5.03;;;;;;;;;;5001668;28;20573;-62
2022/10/31 13:28:44;;;;;;;7.90;4.78;;;;;;;;;;5006648;28;20075;-61
2022/10/31 13:31:10;;;;;;;8.82;4.90;;;;;;;;;;5012391;28;20030;-61
2022/10/31 13:33:42;;;;;;;14.90;5.35;;;;;;;;;;5013313;28;20025;-61
2022/10/31 13:36:27;;;;;;;16.20;4.63;;;;;;;;;;5012095;28;20030;-61
2022/10/31 13:39:11;;;;;;;12.05;5.75;;;;;;;;;;5012357;28;20370;-61
2022/10/31 13:41:37;;;;;;;10.07;5.03;;;;;;;;;;5015045;28;20026;-61
2022/10/31 13:44:03;;;;;;;15.48;5.45;;;;;;;;;;5013018;28;20036;-61
2022/10/31 13:46:33;;;;;;;11.00;5.50;;;;;;;;;;5012030;28;20026;-61
2022/10/31 13:48:59;;;;;;;12.13;6.07;;;;;;;;;;5014558;28;20474;-61
2022/10/31 13:51:28;;;;;;;14.25;5.47;;;;;;;;;;5014778;28;20040;-61
2022/10/31 13:53:54;;;;;;;17.27;6.20;;;;;;;;;;5011321;28;20505;-61
2022/10/31 13:56:22;;;;;;;13.82;5.30;;;;;;;;;;5009004;28;20022;-61
2022/10/31 13:58:58;;;;;;;14.18;7.53;;;;;;;;;;5009328;28;20029;-61
2022/10/31 14:01:24;;;;;;;13.48;6.43;;;;;;;;;;5006513;28;20037;-61
2022/10/31 14:03:58;;;;;;;14.10;6.55;;;;;;;;;;5011205;28;20616;-61
2022/10/31 14:06:34;;;;;;;17.95;7.18;;;;;;;;;;5010996;28;20021;-60
2022/10/31 14:09:01;;;;;;;11.65;7.32;;;;;;;;;;5012727;28;20128;-61
2022/10/31 14:11:28;;;;;;;13.43;5.85;;;;;;;;;;5013705;28;20036;-60
2022/10/31 14:13:56;;;;;;;18.40;6.20;;;;;;;;;;5011326;28;20017;-60
2022/10/31 14:16:26;;;;;;;12.88;6.60;;;;;;;;;;5012494;28;20026;-60
2022/10/31 14:19:13;;;;;;;15.73;6.65;;;;;;;;;;5013902;28;20117;-60
2022/10/31 14:21:41;;;;;;;10.55;6.28;;;;;;;;;;5014556;28;20470;-61
2022/10/31 14:24:25;;;;;;;12.98;6.28;;;;;;;;;;5012500;28;20030;-60
2022/10/31 14:26:55;;;;;;;12.85;6.30;;;;;;;;;;5008890;28;20030;-60
2022/10/31 14:29:24;;;;;;;21.10;6.55;;;;;;;;;;5007241;28;20384;-61
2022/10/31 14:31:55;;;;;;;13.93;6.18;;;;;;;;;;5007484;28;20029;-60
2022/10/31 14:34:27;;;;;;;17.92;7.50;;;;;;;;;;5013227;28;20525;-60
2022/10/31 14:37:05;;;;;;;15.93;5.93;;;;;;;;;;5011903;28;20063;-61
2022/10/31 14:39:31;;;;;;;13.38;6.70;;;;;;;;;;5007698;28;20025;-60
2022/10/31 14:42:15;;;;;;;10.60;5.32;;;;;;;;;;5010000;28;20037;-60
2022/10/31 14:44:41;;;;;;;13.55;6.20;;;;;;;;;;4999239;28;20043;-60
2022/10/31 14:47:19;;;;;;;19.17;5.75;;;;;;;;;;4998034;28;20030;-60
2022/10/31 14:49:48;;;;;;;10.77;5.82;;;;;;;;;;5001751;28;20026;-60
2022/10/31 14:52:15;;;;;;;9.05;5.97;;;;;;;;;;5021536;28;20040;-60
2022/10/31 14:54:46;;;;;;;13.20;5.72;;;;;;;;;;5001212;28;20023;-61
2022/10/31 14:57:17;;;;;;;13.93;6.43;;;;;;;;;;5002210;28;20032;-61
2022/10/31 14:59:48;;;;;;;13.23;6.28;;;;;;;;;;4998259;28;20026;-60
2022/10/31 15:02:26;;;;;;;9.10;5.72;;;;;;;;;;5001978;28;20569;-60
2022/10/31 15:04:54;;;;;;;16.42;5.93;;;;;;;;;;4998362;28;20062;-60